Terminal Aerodrome Forecast
Issued by NWS

Home | Current Version | Previous Version | Text Only | Print | Product List | Glossary On
Versions: 1 2 3 4 5 6 7 8 9 10 11 12 13
000
FTAK31 PAJN 282300
TAFAWG
TAF
PAWG 282325Z 2900/2924 27007KT P6SM VCSH SCT035 BKN050
     FM290400 30006KT P6SM FEW040 BKN080
     FM290800 VRB03KT P6SM BKN080
     FM291600 27010KT P6SM SCT080
      AMD LTD TO CLD VIS AND WIND 2906/2915=

USA.gov is the U.S. government's official web portal to all federal, state and local government web resources and services.